sensor_id;sensor_type;location;lat;lon;timestamp;P1;durP1;ratioP1;P2;durP2;ratioP2
42742;SDS011;28397;44.552;-0.848;2023-02-15T00:01:36;13.75;;;12.32;;
42742;SDS011;28397;44.552;-0.848;2023-02-15T00:04:02;16.98;;;14.15;;
42742;SDS011;28397;44.552;-0.848;2023-02-15T00:06:29;14.68;;;12.85;;
42742;SDS011;28397;44.552;-0.848;2023-02-15T00:08:55;14.32;;;12.82;;
42742;SDS011;28397;44.552;-0.848;2023-02-15T00:11:21;17.23;;;12.48;;
42742;SDS011;28397;44.552;-0.848;2023-02-15T00:14:09;13.27;;;11.73;;
42742;SDS011;28397;44.552;-0.848;2023-02-15T00:16:37;14.80;;;12.02;;
42742;SDS011;28397;44.552;-0.848;2023-02-15T00:19:04;17.80;;;12.48;;
42742;SDS011;28397;44.552;-0.848;2023-02-15T00:21:31;14.57;;;12.10;;
42742;SDS011;28397;44.552;-0.848;2023-02-15T00:23:58;13.93;;;12.50;;
42742;SDS011;28397;44.552;-0.848;2023-02-15T00:26:25;13.95;;;12.50;;
42742;SDS011;28397;44.552;-0.848;2023-02-15T00:28:52;15.88;;;13.30;;
42742;SDS011;28397;44.552;-0.848;2023-02-15T00:31:18;15.15;;;12.07;;
42742;SDS011;28397;44.552;-0.848;2023-02-15T00:33:44;14.57;;;12.80;;
42742;SDS011;28397;44.552;-0.848;2023-02-15T00:36:10;16.35;;;12.48;;
42742;SDS011;28397;44.552;-0.848;2023-02-15T00:38:36;13.30;;;11.95;;
42742;SDS011;28397;44.552;-0.848;2023-02-15T00:41:03;13.30;;;11.95;;
42742;SDS011;28397;44.552;-0.848;2023-02-15T00:43:30;13.10;;;11.70;;
42742;SDS011;28397;44.552;-0.848;2023-02-15T00:45:57;15.73;;;11.82;;
42742;SDS011;28397;44.552;-0.848;2023-02-15T00:48:23;12.82;;;11.45;;
42742;SDS011;28397;44.552;-0.848;2023-02-15T00:50:50;13.45;;;12.05;;
42742;SDS011;28397;44.552;-0.848;2023-02-15T00:55:49;14.13;;;12.38;;
42742;SDS011;28397;44.552;-0.848;2023-02-15T00:58:15;15.65;;;12.48;;
42742;SDS011;28397;44.552;-0.848;2023-02-15T01:00:41;13.90;;;12.43;;
42742;SDS011;28397;44.552;-0.848;2023-02-15T01:03:08;13.90;;;12.02;;
42742;SDS011;28397;44.552;-0.848;2023-02-15T01:05:34;14.30;;;12.70;;
42742;SDS011;28397;44.552;-0.848;2023-02-15T01:08:00;13.15;;;11.38;;
42742;SDS011;28397;44.552;-0.848;2023-02-15T01:10:26;14.75;;;12.65;;
42742;SDS011;28397;44.552;-0.848;2023-02-15T01:12:53;13.35;;;11.90;;
42742;SDS011;28397;44.552;-0.848;2023-02-15T01:15:20;13.65;;;12.18;;
42742;SDS011;28397;44.552;-0.848;2023-02-15T01:17:46;13.07;;;11.57;;
42742;SDS011;28397;44.552;-0.848;2023-02-15T01:20:17;15.60;;;12.35;;
42742;SDS011;28397;44.552;-0.848;2023-02-15T01:22:43;15.05;;;13.43;;
42742;SDS011;28397;44.552;-0.848;2023-02-15T01:25:09;15.15;;;12.48;;
42742;SDS011;28397;44.552;-0.848;2023-02-15T01:27:35;17.55;;;15.70;;
42742;SDS011;28397;44.552;-0.848;2023-02-15T01:30:00;17.05;;;15.20;;
42742;SDS011;28397;44.552;-0.848;2023-02-15T01:32:26;15.27;;;13.15;;
42742;SDS011;28397;44.552;-0.848;2023-02-15T01:34:52;14.18;;;12.57;;
42742;SDS011;28397;44.552;-0.848;2023-02-15T01:37:18;17.65;;;13.00;;
42742;SDS011;28397;44.552;-0.848;2023-02-15T01:39:44;13.88;;;12.00;;
42742;SDS011;28397;44.552;-0.848;2023-02-15T01:42:10;13.40;;;12.00;;
42742;SDS011;28397;44.552;-0.848;2023-02-15T01:52:46;14.30;;;12.20;;
42742;SDS011;28397;44.552;-0.848;2023-02-15T01:55:17;14.25;;;12.75;;
42742;SDS011;28397;44.552;-0.848;2023-02-15T01:57:44;13.63;;;12.38;;
42742;SDS011;28397;44.552;-0.848;2023-02-15T02:00:11;15.57;;;13.38;;
42742;SDS011;28397;44.552;-0.848;2023-02-15T02:02:39;15.77;;;13.23;;
42742;SDS011;28397;44.552;-0.848;2023-02-15T02:05:07;16.40;;;13.82;;
42742;SDS011;28397;44.552;-0.848;2023-02-15T02:07:37;15.18;;;13.60;;
42742;SDS011;28397;44.552;-0.848;2023-02-15T02:10:06;16.60;;;13.63;;
42742;SDS011;28397;44.552;-0.848;2023-02-15T02:12:34;16.17;;;13.85;;
42742;SDS011;28397;44.552;-0.848;2023-02-15T02:15:02;16.23;;;13.23;;
42742;SDS011;28397;44.552;-0.848;2023-02-15T02:20:26;18.95;;;14.23;;
42742;SDS011;28397;44.552;-0.848;2023-02-15T02:25:53;15.90;;;13.40;;
42742;SDS011;28397;44.552;-0.848;2023-02-15T02:31:48;16.73;;;13.07;;
42742;SDS011;28397;44.552;-0.848;2023-02-15T02:37:08;17.05;;;13.80;;
42742;SDS011;28397;44.552;-0.848;2023-02-15T02:40:45;15.18;;;13.57;;
42742;SDS011;28397;44.552;-0.848;2023-02-15T02:42:54;16.13;;;13.45;;
42742;SDS011;28397;44.552;-0.848;2023-02-15T02:45:25;16.08;;;14.10;;
42742;SDS011;28397;44.552;-0.848;2023-02-15T02:48:00;17.17;;;13.95;;
42742;SDS011;28397;44.552;-0.848;2023-02-15T02:50:33;14.98;;;13.43;;
42742;SDS011;28397;44.552;-0.848;2023-02-15T02:52:58;16.30;;;13.18;;
42742;SDS011;28397;44.552;-0.848;2023-02-15T03:00:26;15.25;;;13.60;;
42742;SDS011;28397;44.552;-0.848;2023-02-15T03:03:01;17.95;;;14.10;;
42742;SDS011;28397;44.552;-0.848;2023-02-15T03:05:36;17.67;;;14.27;;
42742;SDS011;28397;44.552;-0.848;2023-02-15T03:08:06;16.65;;;14.00;;
42742;SDS011;28397;44.552;-0.848;2023-02-15T03:10:34;17.15;;;13.77;;
42742;SDS011;28397;44.552;-0.848;2023-02-15T03:13:02;21.13;;;14.70;;
42742;SDS011;28397;44.552;-0.848;2023-02-15T03:15:31;18.60;;;14.10;;
42742;SDS011;28397;44.552;-0.848;2023-02-15T03:18:21;16.85;;;14.48;;
42742;SDS011;28397;44.552;-0.848;2023-02-15T03:20:50;15.93;;;14.20;;
42742;SDS011;28397;44.552;-0.848;2023-02-15T03:23:18;17.42;;;15.07;;
42742;SDS011;28397;44.552;-0.848;2023-02-15T03:25:51;16.95;;;15.07;;
42742;SDS011;28397;44.552;-0.848;2023-02-15T03:28:23;15.63;;;14.05;;
42742;SDS011;28397;44.552;-0.848;2023-02-15T03:30:58;16.23;;;14.30;;
42742;SDS011;28397;44.552;-0.848;2023-02-15T03:33:28;18.77;;;14.48;;
42742;SDS011;28397;44.552;-0.848;2023-02-15T03:42:28;17.00;;;15.25;;
42742;SDS011;28397;44.552;-0.848;2023-02-15T03:44:41;17.27;;;13.85;;
42742;SDS011;28397;44.552;-0.848;2023-02-15T03:47:21;16.00;;;14.20;;
42742;SDS011;28397;44.552;-0.848;2023-02-15T03:49:55;16.67;;;14.98;;
42742;SDS011;28397;44.552;-0.848;2023-02-15T03:53:09;17.17;;;14.40;;
42742;SDS011;28397;44.552;-0.848;2023-02-15T03:55:38;17.90;;;14.80;;
42742;SDS011;28397;44.552;-0.848;2023-02-15T03:58:04;17.00;;;15.02;;
42742;SDS011;28397;44.552;-0.848;2023-02-15T04:03:39;17.58;;;14.25;;
42742;SDS011;28397;44.552;-0.848;2023-02-15T04:06:09;17.00;;;14.50;;
42742;SDS011;28397;44.552;-0.848;2023-02-15T04:08:35;18.17;;;14.48;;
42742;SDS011;28397;44.552;-0.848;2023-02-15T04:13:46;17.88;;;14.23;;
42742;SDS011;28397;44.552;-0.848;2023-02-15T04:16:11;18.33;;;14.50;;
42742;SDS011;28397;44.552;-0.848;2023-02-15T04:18:38;16.83;;;14.52;;
42742;SDS011;28397;44.552;-0.848;2023-02-15T04:21:24;17.65;;;14.65;;
42742;SDS011;28397;44.552;-0.848;2023-02-15T04:24:10;17.52;;;15.48;;
42742;SDS011;28397;44.552;-0.848;2023-02-15T04:26:54;18.77;;;16.17;;
42742;SDS011;28397;44.552;-0.848;2023-02-15T04:29:21;18.08;;;16.17;;
42742;SDS011;28397;44.552;-0.848;2023-02-15T04:31:48;20.45;;;16.25;;
42742;SDS011;28397;44.552;-0.848;2023-02-15T04:34:14;20.85;;;16.85;;
42742;SDS011;28397;44.552;-0.848;2023-02-15T04:36:40;19.10;;;16.80;;
42742;SDS011;28397;44.552;-0.848;2023-02-15T04:39:07;19.15;;;16.67;;
42742;SDS011;28397;44.552;-0.848;2023-02-15T04:41:33;18.90;;;15.98;;
42742;SDS011;28397;44.552;-0.848;2023-02-15T04:43:59;18.88;;;14.80;;
42742;SDS011;28397;44.552;-0.848;2023-02-15T04:46:25;19.67;;;16.20;;
42742;SDS011;28397;44.552;-0.848;2023-02-15T04:48:52;18.77;;;16.35;;
42742;SDS011;28397;44.552;-0.848;2023-02-15T04:51:18;19.15;;;16.25;;
42742;SDS011;28397;44.552;-0.848;2023-02-15T04:53:44;19.60;;;16.48;;
42742;SDS011;28397;44.552;-0.848;2023-02-15T04:56:09;18.27;;;16.35;;
42742;SDS011;28397;44.552;-0.848;2023-02-15T04:58:35;19.92;;;15.68;;
42742;SDS011;28397;44.552;-0.848;2023-02-15T05:01:02;19.13;;;15.82;;
42742;SDS011;28397;44.552;-0.848;2023-02-15T05:03:28;22.17;;;16.23;;
42742;SDS011;28397;44.552;-0.848;2023-02-15T05:05:53;19.92;;;15.90;;
42742;SDS011;28397;44.552;-0.848;2023-02-15T05:08:19;17.40;;;15.05;;
42742;SDS011;28397;44.552;-0.848;2023-02-15T05:10:47;17.70;;;15.98;;
42742;SDS011;28397;44.552;-0.848;2023-02-15T05:13:13;19.00;;;15.73;;
42742;SDS011;28397;44.552;-0.848;2023-02-15T05:15:39;18.92;;;15.32;;
42742;SDS011;28397;44.552;-0.848;2023-02-15T05:18:05;21.48;;;15.75;;
42742;SDS011;28397;44.552;-0.848;2023-02-15T05:20:32;17.65;;;15.77;;
42742;SDS011;28397;44.552;-0.848;2023-02-15T05:22:58;19.08;;;16.02;;
42742;SDS011;28397;44.552;-0.848;2023-02-15T05:25:24;18.80;;;15.73;;
42742;SDS011;28397;44.552;-0.848;2023-02-15T05:28:09;20.13;;;16.38;;
42742;SDS011;28397;44.552;-0.848;2023-02-15T05:30:45;19.35;;;15.68;;
42742;SDS011;28397;44.552;-0.848;2023-02-15T05:33:11;16.95;;;15.25;;
42742;SDS011;28397;44.552;-0.848;2023-02-15T05:35:37;20.02;;;16.33;;
42742;SDS011;28397;44.552;-0.848;2023-02-15T05:38:03;18.48;;;16.48;;
42742;SDS011;28397;44.552;-0.848;2023-02-15T05:40:28;20.80;;;16.67;;
42742;SDS011;28397;44.552;-0.848;2023-02-15T05:42:54;19.65;;;16.65;;
42742;SDS011;28397;44.552;-0.848;2023-02-15T05:45:21;19.90;;;17.08;;
42742;SDS011;28397;44.552;-0.848;2023-02-15T05:47:47;20.13;;;16.27;;
42742;SDS011;28397;44.552;-0.848;2023-02-15T05:50:12;18.88;;;16.35;;
42742;SDS011;28397;44.552;-0.848;2023-02-15T05:52:38;17.58;;;15.70;;
42742;SDS011;28397;44.552;-0.848;2023-02-15T05:55:04;17.00;;;15.20;;
42742;SDS011;28397;44.552;-0.848;2023-02-15T05:57:30;19.38;;;16.42;;
42742;SDS011;28397;44.552;-0.848;2023-02-15T05:59:56;19.45;;;15.93;;
42742;SDS011;28397;44.552;-0.848;2023-02-15T06:02:22;19.38;;;16.67;;
42742;SDS011;28397;44.552;-0.848;2023-02-15T06:04:47;21.63;;;17.83;;
42742;SDS011;28397;44.552;-0.848;2023-02-15T06:07:13;20.33;;;18.10;;
42742;SDS011;28397;44.552;-0.848;2023-02-15T06:09:39;24.27;;;17.10;;
42742;SDS011;28397;44.552;-0.848;2023-02-15T06:12:05;22.08;;;16.50;;
42742;SDS011;28397;44.552;-0.848;2023-02-15T06:14:30;19.00;;;17.02;;
42742;SDS011;28397;44.552;-0.848;2023-02-15T06:16:56;22.25;;;17.48;;
42742;SDS011;28397;44.552;-0.848;2023-02-15T06:19:22;19.50;;;17.40;;
42742;SDS011;28397;44.552;-0.848;2023-02-15T06:21:48;20.58;;;18.48;;
42742;SDS011;28397;44.552;-0.848;2023-02-15T06:24:14;20.70;;;17.27;;
42742;SDS011;28397;44.552;-0.848;2023-02-15T06:26:40;20.23;;;17.83;;
42742;SDS011;28397;44.552;-0.848;2023-02-15T06:29:05;18.92;;;16.58;;
42742;SDS011;28397;44.552;-0.848;2023-02-15T06:31:32;21.52;;;17.48;;
42742;SDS011;28397;44.552;-0.848;2023-02-15T06:33:57;18.20;;;16.27;;
42742;SDS011;28397;44.552;-0.848;2023-02-15T06:36:29;22.08;;;18.38;;
42742;SDS011;28397;44.552;-0.848;2023-02-15T06:38:55;21.02;;;18.02;;
42742;SDS011;28397;44.552;-0.848;2023-02-15T06:41:21;23.38;;;19.45;;
42742;SDS011;28397;44.552;-0.848;2023-02-15T06:43:47;22.55;;;20.08;;
42742;SDS011;28397;44.552;-0.848;2023-02-15T06:46:13;22.35;;;19.50;;
42742;SDS011;28397;44.552;-0.848;2023-02-15T06:48:39;25.13;;;21.05;;
42742;SDS011;28397;44.552;-0.848;2023-02-15T06:51:05;24.98;;;20.77;;
42742;SDS011;28397;44.552;-0.848;2023-02-15T06:53:30;23.17;;;20.15;;
42742;SDS011;28397;44.552;-0.848;2023-02-15T06:56:00;22.20;;;19.83;;
42742;SDS011;28397;44.552;-0.848;2023-02-15T06:58:34;23.23;;;20.45;;
42742;SDS011;28397;44.552;-0.848;2023-02-15T07:01:01;25.35;;;22.65;;
42742;SDS011;28397;44.552;-0.848;2023-02-15T07:03:27;23.90;;;20.25;;
42742;SDS011;28397;44.552;-0.848;2023-02-15T07:05:55;25.48;;;19.42;;
42742;SDS011;28397;44.552;-0.848;2023-02-15T07:08:23;25.00;;;19.23;;
42742;SDS011;28397;44.552;-0.848;2023-02-15T07:10:49;22.55;;;19.83;;
42742;SDS011;28397;44.552;-0.848;2023-02-15T07:13:15;21.05;;;18.23;;
42742;SDS011;28397;44.552;-0.848;2023-02-15T07:15:41;24.70;;;20.10;;
42742;SDS011;28397;44.552;-0.848;2023-02-15T07:18:07;24.80;;;19.25;;
42742;SDS011;28397;44.552;-0.848;2023-02-15T07:20:34;21.85;;;19.10;;
42742;SDS011;28397;44.552;-0.848;2023-02-15T07:23:00;21.85;;;18.27;;
42742;SDS011;28397;44.552;-0.848;2023-02-15T07:25:27;20.77;;;18.17;;
42742;SDS011;28397;44.552;-0.848;2023-02-15T07:27:56;24.63;;;18.42;;
42742;SDS011;28397;44.552;-0.848;2023-02-15T07:30:23;25.17;;;19.52;;
42742;SDS011;28397;44.552;-0.848;2023-02-15T07:32:49;25.40;;;19.92;;
42742;SDS011;28397;44.552;-0.848;2023-02-15T07:35:33;22.10;;;19.75;;
42742;SDS011;28397;44.552;-0.848;2023-02-15T07:37:59;22.45;;;17.95;;
42742;SDS011;28397;44.552;-0.848;2023-02-15T07:40:25;20.23;;;18.10;;
42742;SDS011;28397;44.552;-0.848;2023-02-15T07:42:51;22.98;;;20.15;;
42742;SDS011;28397;44.552;-0.848;2023-02-15T07:45:19;21.83;;;18.38;;
42742;SDS011;28397;44.552;-0.848;2023-02-15T07:47:45;22.00;;;18.35;;
42742;SDS011;28397;44.552;-0.848;2023-02-15T07:50:11;20.17;;;17.42;;
42742;SDS011;28397;44.552;-0.848;2023-02-15T07:52:37;19.48;;;17.05;;
42742;SDS011;28397;44.552;-0.848;2023-02-15T07:55:03;19.63;;;16.55;;
42742;SDS011;28397;44.552;-0.848;2023-02-15T07:57:29;18.90;;;15.75;;
42742;SDS011;28397;44.552;-0.848;2023-02-15T07:59:54;19.15;;;16.80;;
42742;SDS011;28397;44.552;-0.848;2023-02-15T08:02:20;17.70;;;15.73;;
42742;SDS011;28397;44.552;-0.848;2023-02-15T08:04:46;18.65;;;15.57;;
42742;SDS011;28397;44.552;-0.848;2023-02-15T08:07:11;16.75;;;14.90;;
42742;SDS011;28397;44.552;-0.848;2023-02-15T08:09:37;19.10;;;14.30;;
42742;SDS011;28397;44.552;-0.848;2023-02-15T08:12:03;20.40;;;15.43;;
42742;SDS011;28397;44.552;-0.848;2023-02-15T08:14:29;18.60;;;15.63;;
42742;SDS011;28397;44.552;-0.848;2023-02-15T08:16:59;20.10;;;15.25;;
42742;SDS011;28397;44.552;-0.848;2023-02-15T08:19:31;18.95;;;16.38;;
42742;SDS011;28397;44.552;-0.848;2023-02-15T08:22:01;18.30;;;15.45;;
42742;SDS011;28397;44.552;-0.848;2023-02-15T08:24:30;17.38;;;15.05;;
42742;SDS011;28397;44.552;-0.848;2023-02-15T08:26:57;21.20;;;14.52;;
42742;SDS011;28397;44.552;-0.848;2023-02-15T08:29:24;18.75;;;14.20;;
42742;SDS011;28397;44.552;-0.848;2023-02-15T08:31:52;14.40;;;12.30;;
42742;SDS011;28397;44.552;-0.848;2023-02-15T08:34:20;13.35;;;11.90;;
42742;SDS011;28397;44.552;-0.848;2023-02-15T08:36:46;13.73;;;11.07;;
42742;SDS011;28397;44.552;-0.848;2023-02-15T08:39:12;13.85;;;10.73;;
42742;SDS011;28397;44.552;-0.848;2023-02-15T08:41:39;12.25;;;9.70;;
42742;SDS011;28397;44.552;-0.848;2023-02-15T08:44:07;12.00;;;9.60;;
42742;SDS011;28397;44.552;-0.848;2023-02-15T08:46:35;12.35;;;9.70;;
42742;SDS011;28397;44.552;-0.848;2023-02-15T08:49:03;11.65;;;8.85;;
42742;SDS011;28397;44.552;-0.848;2023-02-15T08:51:32;12.38;;;9.38;;
42742;SDS011;28397;44.552;-0.848;2023-02-15T08:54:03;12.07;;;10.63;;
42742;SDS011;28397;44.552;-0.848;2023-02-15T08:56:32;15.25;;;10.60;;
42742;SDS011;28397;44.552;-0.848;2023-02-15T08:59:00;15.05;;;11.30;;
42742;SDS011;28397;44.552;-0.848;2023-02-15T09:01:29;12.30;;;8.73;;
42742;SDS011;28397;44.552;-0.848;2023-02-15T09:03:58;9.98;;;8.57;;
42742;SDS011;28397;44.552;-0.848;2023-02-15T09:06:29;11.85;;;8.32;;
42742;SDS011;28397;44.552;-0.848;2023-02-15T09:08:55;10.00;;;8.43;;
42742;SDS011;28397;44.552;-0.848;2023-02-15T09:11:22;13.68;;;8.57;;
42742;SDS011;28397;44.552;-0.848;2023-02-15T09:16:22;10.27;;;7.60;;
42742;SDS011;28397;44.552;-0.848;2023-02-15T09:18:49;10.88;;;7.53;;
42742;SDS011;28397;44.552;-0.848;2023-02-15T09:21:16;9.10;;;7.18;;
42742;SDS011;28397;44.552;-0.848;2023-02-15T09:23:45;11.27;;;7.32;;
42742;SDS011;28397;44.552;-0.848;2023-02-15T09:26:13;9.25;;;6.93;;
42742;SDS011;28397;44.552;-0.848;2023-02-15T09:28:40;8.50;;;7.60;;
42742;SDS011;28397;44.552;-0.848;2023-02-15T09:31:14;10.43;;;7.25;;
42742;SDS011;28397;44.552;-0.848;2023-02-15T09:33:42;8.63;;;6.63;;
42742;SDS011;28397;44.552;-0.848;2023-02-15T09:36:16;10.25;;;7.68;;
42742;SDS011;28397;44.552;-0.848;2023-02-15T09:38:45;10.32;;;6.95;;
42742;SDS011;28397;44.552;-0.848;2023-02-15T09:47:10;9.10;;;7.10;;
42742;SDS011;28397;44.552;-0.848;2023-02-15T10:00:36;8.63;;;6.22;;
42742;SDS011;28397;44.552;-0.848;2023-02-15T10:26:07;12.77;;;6.20;;
42742;SDS011;28397;44.552;-0.848;2023-02-15T10:33:43;8.35;;;5.55;;
42742;SDS011;28397;44.552;-0.848;2023-02-15T10:52:39;7.95;;;4.70;;
42742;SDS011;28397;44.552;-0.848;2023-02-15T10:58:04;8.25;;;4.05;;
42742;SDS011;28397;44.552;-0.848;2023-02-15T11:06:05;4.50;;;3.28;;
42742;SDS011;28397;44.552;-0.848;2023-02-15T11:08:40;4.28;;;3.45;;
42742;SDS011;28397;44.552;-0.848;2023-02-15T11:16:59;5.63;;;3.30;;
42742;SDS011;28397;44.552;-0.848;2023-02-15T11:22:19;5.32;;;3.05;;
42742;SDS011;28397;44.552;-0.848;2023-02-15T11:24:45;7.97;;;3.60;;
42742;SDS011;28397;44.552;-0.848;2023-02-15T11:32:38;4.30;;;2.95;;
42742;SDS011;28397;44.552;-0.848;2023-02-15T11:42:49;4.25;;;3.10;;
42742;SDS011;28397;44.552;-0.848;2023-02-15T11:47:48;4.65;;;2.95;;
42742;SDS011;28397;44.552;-0.848;2023-02-15T11:50:14;4.03;;;2.40;;
42742;SDS011;28397;44.552;-0.848;2023-02-15T11:52:43;4.85;;;2.60;;
42742;SDS011;28397;44.552;-0.848;2023-02-15T11:55:12;4.13;;;2.40;;
42742;SDS011;28397;44.552;-0.848;2023-02-15T11:57:43;4.57;;;2.40;;
42742;SDS011;28397;44.552;-0.848;2023-02-15T12:00:29;3.38;;;2.45;;
42742;SDS011;28397;44.552;-0.848;2023-02-15T12:03:07;2.60;;;2.40;;
42742;SDS011;28397;44.552;-0.848;2023-02-15T12:05:40;3.40;;;2.60;;
42742;SDS011;28397;44.552;-0.848;2023-02-15T12:08:12;3.88;;;2.50;;
42742;SDS011;28397;44.552;-0.848;2023-02-15T12:10:57;4.03;;;2.60;;
42742;SDS011;28397;44.552;-0.848;2023-02-15T12:13:37;5.93;;;2.70;;
42742;SDS011;28397;44.552;-0.848;2023-02-15T12:16:22;3.55;;;2.30;;
42742;SDS011;28397;44.552;-0.848;2023-02-15T12:18:48;3.53;;;2.60;;
42742;SDS011;28397;44.552;-0.848;2023-02-15T12:21:27;3.10;;;2.40;;
42742;SDS011;28397;44.552;-0.848;2023-02-15T12:23:57;4.00;;;2.53;;
42742;SDS011;28397;44.552;-0.848;2023-02-15T12:26:30;2.60;;;2.40;;
42742;SDS011;28397;44.552;-0.848;2023-02-15T12:29:00;5.13;;;2.58;;
42742;SDS011;28397;44.552;-0.848;2023-02-15T12:31:41;2.93;;;2.50;;
42742;SDS011;28397;44.552;-0.848;2023-02-15T12:34:15;2.95;;;2.33;;
42742;SDS011;28397;44.552;-0.848;2023-02-15T12:36:52;3.40;;;2.28;;
42742;SDS011;28397;44.552;-0.848;2023-02-15T12:39:26;3.70;;;2.60;;
42742;SDS011;28397;44.552;-0.848;2023-02-15T12:44:25;5.03;;;2.70;;
42742;SDS011;28397;44.552;-0.848;2023-02-15T12:49:25;2.40;;;2.20;;
42742;SDS011;28397;44.552;-0.848;2023-02-15T12:52:02;3.80;;;2.15;;
42742;SDS011;28397;44.552;-0.848;2023-02-15T12:54:48;3.72;;;2.10;;
42742;SDS011;28397;44.552;-0.848;2023-02-15T12:57:21;5.43;;;2.60;;
42742;SDS011;28397;44.552;-0.848;2023-02-15T13:00:01;4.20;;;2.40;;
42742;SDS011;28397;44.552;-0.848;2023-02-15T13:02:52;2.72;;;2.30;;
42742;SDS011;28397;44.552;-0.848;2023-02-15T13:05:35;4.80;;;2.22;;
42742;SDS011;28397;44.552;-0.848;2023-02-15T13:10:40;2.85;;;2.10;;
42742;SDS011;28397;44.552;-0.848;2023-02-15T13:13:10;3.80;;;2.20;;
42742;SDS011;28397;44.552;-0.848;2023-02-15T13:15:43;3.05;;;1.98;;
42742;SDS011;28397;44.552;-0.848;2023-02-15T13:18:17;4.25;;;2.30;;
42742;SDS011;28397;44.552;-0.848;2023-02-15T13:21:12;3.03;;;2.03;;
42742;SDS011;28397;44.552;-0.848;2023-02-15T13:23:39;3.17;;;2.05;;
42742;SDS011;28397;44.552;-0.848;2023-02-15T13:26:11;3.00;;;2.08;;
42742;SDS011;28397;44.552;-0.848;2023-02-15T13:29:17;3.13;;;2.10;;
42742;SDS011;28397;44.552;-0.848;2023-02-15T13:31:40;4.57;;;2.28;;
42742;SDS011;28397;44.552;-0.848;2023-02-15T13:34:11;3.22;;;2.25;;
42742;SDS011;28397;44.552;-0.848;2023-02-15T13:45:16;3.83;;;2.58;;
42742;SDS011;28397;44.552;-0.848;2023-02-15T13:50:52;3.78;;;2.40;;
42742;SDS011;28397;44.552;-0.848;2023-02-15T14:01:11;3.90;;;2.40;;
42742;SDS011;28397;44.552;-0.848;2023-02-15T14:04:08;3.20;;;2.50;;
42742;SDS011;28397;44.552;-0.848;2023-02-15T14:20:08;5.28;;;2.65;;
42742;SDS011;28397;44.552;-0.848;2023-02-15T14:25:54;4.05;;;2.00;;
42742;SDS011;28397;44.552;-0.848;2023-02-15T14:28:36;2.45;;;1.77;;
42742;SDS011;28397;44.552;-0.848;2023-02-15T14:31:14;4.20;;;2.15;;
42742;SDS011;28397;44.552;-0.848;2023-02-15T14:33:43;4.10;;;2.17;;
42742;SDS011;28397;44.552;-0.848;2023-02-15T14:36:18;4.00;;;2.10;;
42742;SDS011;28397;44.552;-0.848;2023-02-15T14:38:51;2.78;;;2.03;;
42742;SDS011;28397;44.552;-0.848;2023-02-15T14:41:39;3.25;;;2.00;;
42742;SDS011;28397;44.552;-0.848;2023-02-15T14:49:43;2.88;;;1.73;;
42742;SDS011;28397;44.552;-0.848;2023-02-15T14:52:09;2.95;;;1.70;;
42742;SDS011;28397;44.552;-0.848;2023-02-15T15:04:34;3.42;;;1.75;;
42742;SDS011;28397;44.552;-0.848;2023-02-15T15:07:07;2.00;;;1.55;;
42742;SDS011;28397;44.552;-0.848;2023-02-15T15:09:40;3.13;;;1.73;;
42742;SDS011;28397;44.552;-0.848;2023-02-15T15:14:59;3.47;;;2.05;;
42742;SDS011;28397;44.552;-0.848;2023-02-15T15:31:21;3.40;;;1.88;;
42742;SDS011;28397;44.552;-0.848;2023-02-15T15:43:03;3.97;;;1.90;;
42742;SDS011;28397;44.552;-0.848;2023-02-15T15:49:12;3.72;;;2.13;;
42742;SDS011;28397;44.552;-0.848;2023-02-15T15:51:42;5.40;;;2.10;;
42742;SDS011;28397;44.552;-0.848;2023-02-15T15:54:14;4.60;;;2.30;;
42742;SDS011;28397;44.552;-0.848;2023-02-15T15:56:49;4.32;;;2.50;;
42742;SDS011;28397;44.552;-0.848;2023-02-15T15:59:19;3.92;;;2.30;;
42742;SDS011;28397;44.552;-0.848;2023-02-15T16:01:48;4.90;;;1.92;;
42742;SDS011;28397;44.552;-0.848;2023-02-15T16:04:28;5.10;;;2.05;;
42742;SDS011;28397;44.552;-0.848;2023-02-15T16:06:56;3.95;;;2.25;;
42742;SDS011;28397;44.552;-0.848;2023-02-15T16:09:23;4.00;;;2.53;;
42742;SDS011;28397;44.552;-0.848;2023-02-15T16:11:52;3.67;;;2.20;;
42742;SDS011;28397;44.552;-0.848;2023-02-15T16:14:40;4.88;;;2.30;;
42742;SDS011;28397;44.552;-0.848;2023-02-15T16:17:14;4.45;;;2.55;;
42742;SDS011;28397;44.552;-0.848;2023-02-15T16:19:45;5.40;;;2.17;;
42742;SDS011;28397;44.552;-0.848;2023-02-15T16:22:15;5.18;;;2.22;;
42742;SDS011;28397;44.552;-0.848;2023-02-15T16:29:46;4.32;;;2.42;;
42742;SDS011;28397;44.552;-0.848;2023-02-15T16:32:16;2.95;;;2.30;;
42742;SDS011;28397;44.552;-0.848;2023-02-15T16:34:53;3.00;;;2.40;;
42742;SDS011;28397;44.552;-0.848;2023-02-15T16:37:24;4.07;;;2.22;;
42742;SDS011;28397;44.552;-0.848;2023-02-15T16:39:52;4.05;;;2.28;;
42742;SDS011;28397;44.552;-0.848;2023-02-15T16:42:20;5.15;;;2.47;;
42742;SDS011;28397;44.552;-0.848;2023-02-15T16:44:47;5.88;;;3.67;;
42742;SDS011;28397;44.552;-0.848;2023-02-15T16:47:38;7.80;;;2.90;;
42742;SDS011;28397;44.552;-0.848;2023-02-15T16:50:07;4.32;;;2.50;;
42742;SDS011;28397;44.552;-0.848;2023-02-15T16:52:43;4.15;;;2.20;;
42742;SDS011;28397;44.552;-0.848;2023-02-15T16:55:25;4.50;;;2.15;;
42742;SDS011;28397;44.552;-0.848;2023-02-15T16:57:57;8.02;;;2.78;;
42742;SDS011;28397;44.552;-0.848;2023-02-15T17:00:30;5.13;;;3.03;;
42742;SDS011;28397;44.552;-0.848;2023-02-15T17:03:00;4.57;;;2.55;;
42742;SDS011;28397;44.552;-0.848;2023-02-15T17:05:32;4.85;;;2.47;;
42742;SDS011;28397;44.552;-0.848;2023-02-15T17:10:42;5.80;;;2.80;;
42742;SDS011;28397;44.552;-0.848;2023-02-15T17:13:12;4.93;;;2.92;;
42742;SDS011;28397;44.552;-0.848;2023-02-15T17:15:43;6.93;;;2.90;;
42742;SDS011;28397;44.552;-0.848;2023-02-15T17:20:56;4.45;;;2.50;;
42742;SDS011;28397;44.552;-0.848;2023-02-15T17:23:44;5.13;;;2.65;;
42742;SDS011;28397;44.552;-0.848;2023-02-15T17:28:47;7.93;;;3.35;;
42742;SDS011;28397;44.552;-0.848;2023-02-15T17:31:16;6.57;;;3.30;;
42742;SDS011;28397;44.552;-0.848;2023-02-15T17:33:43;9.88;;;7.07;;
42742;SDS011;28397;44.552;-0.848;2023-02-15T17:36:19;12.55;;;8.13;;
42742;SDS011;28397;44.552;-0.848;2023-02-15T17:43:55;10.17;;;6.00;;
42742;SDS011;28397;44.552;-0.848;2023-02-15T17:46:21;7.63;;;4.90;;
42742;SDS011;28397;44.552;-0.848;2023-02-15T17:48:48;12.73;;;4.28;;
42742;SDS011;28397;44.552;-0.848;2023-02-15T17:51:16;14.93;;;4.13;;
42742;SDS011;28397;44.552;-0.848;2023-02-15T17:53:44;13.05;;;4.03;;
42742;SDS011;28397;44.552;-0.848;2023-02-15T17:56:34;8.63;;;4.93;;
42742;SDS011;28397;44.552;-0.848;2023-02-15T17:59:01;12.55;;;4.70;;
42742;SDS011;28397;44.552;-0.848;2023-02-15T18:01:31;18.65;;;10.50;;
42742;SDS011;28397;44.552;-0.848;2023-02-15T18:04:17;21.08;;;9.48;;
42742;SDS011;28397;44.552;-0.848;2023-02-15T18:07:01;14.32;;;7.38;;
42742;SDS011;28397;44.552;-0.848;2023-02-15T18:09:46;16.45;;;8.82;;
42742;SDS011;28397;44.552;-0.848;2023-02-15T18:12:31;18.48;;;10.40;;
42742;SDS011;28397;44.552;-0.848;2023-02-15T18:15:03;14.45;;;8.48;;
42742;SDS011;28397;44.552;-0.848;2023-02-15T18:17:43;11.50;;;8.20;;
42742;SDS011;28397;44.552;-0.848;2023-02-15T18:20:21;15.00;;;9.90;;
42742;SDS011;28397;44.552;-0.848;2023-02-15T18:22:53;18.13;;;11.68;;
42742;SDS011;28397;44.552;-0.848;2023-02-15T18:25:20;20.17;;;13.55;;
42742;SDS011;28397;44.552;-0.848;2023-02-15T18:27:48;19.40;;;13.18;;
42742;SDS011;28397;44.552;-0.848;2023-02-15T18:30:17;19.38;;;13.38;;
42742;SDS011;28397;44.552;-0.848;2023-02-15T18:32:46;25.45;;;16.80;;
42742;SDS011;28397;44.552;-0.848;2023-02-15T18:35:16;18.88;;;12.90;;
42742;SDS011;28397;44.552;-0.848;2023-02-15T18:37:47;18.70;;;14.50;;
42742;SDS011;28397;44.552;-0.848;2023-02-15T18:40:20;28.23;;;21.95;;